sensor_id;sensor_type;location;lat;lon;timestamp;pressure;altitude;pressure_sealevel;temperature;humidity
80504;BME280;69825;51.190;6.808;2023-06-22T00:01:47;101524.47;;;30.16;40.27
80504;BME280;69825;51.190;6.808;2023-06-22T00:04:12;101535.59;;;30.16;40.28
80504;BME280;69825;51.190;6.808;2023-06-22T00:06:38;101532.00;;;30.16;40.53
80504;BME280;69825;51.190;6.808;2023-06-22T00:09:03;101532.81;;;30.16;40.09
80504;BME280;69825;51.190;6.808;2023-06-22T00:11:28;101529.22;;;30.16;40.61
80504;BME280;69825;51.190;6.808;2023-06-22T00:13:54;101534.78;;;30.16;40.21
80504;BME280;69825;51.190;6.808;2023-06-22T00:16:19;101536.44;;;30.17;40.36
80504;BME280;69825;51.190;6.808;2023-06-22T00:18:45;101521.56;;;30.11;40.02
80504;BME280;69825;51.190;6.808;2023-06-22T00:21:12;101527.25;;;30.16;40.09
80504;BME280;69825;51.190;6.808;2023-06-22T00:23:37;101526.66;;;30.14;40.83
80504;BME280;69825;51.190;6.808;2023-06-22T00:26:03;101526.06;;;30.12;40.14
80504;BME280;69825;51.190;6.808;2023-06-22T00:28:28;101530.03;;;30.16;40.08
80504;BME280;69825;51.190;6.808;2023-06-22T00:30:54;101513.97;;;30.07;40.58
80504;BME280;69825;51.190;6.808;2023-06-22T00:33:19;101533.94;;;30.15;40.28
80504;BME280;69825;51.190;6.808;2023-06-22T00:35:44;101516.75;;;30.07;40.36
80504;BME280;69825;51.190;6.808;2023-06-22T00:38:10;101536.44;;;30.17;40.23
80504;BME280;69825;51.190;6.808;2023-06-22T00:40:36;101522.09;;;30.08;40.22
80504;BME280;69825;51.190;6.808;2023-06-22T00:43:02;101520.16;;;30.09;40.04
80504;BME280;69825;51.190;6.808;2023-06-22T00:45:27;101528.38;;;30.15;40.07
80504;BME280;69825;51.190;6.808;2023-06-22T00:47:53;101534.41;;;30.12;40.65
80504;BME280;69825;51.190;6.808;2023-06-22T00:50:21;101532.00;;;30.16;40.47
80504;BME280;69825;51.190;6.808;2023-06-22T00:52:57;101522.19;;;30.13;40.65
80504;BME280;69825;51.190;6.808;2023-06-22T00:55:23;101527.25;;;30.16;40.51
80504;BME280;69825;51.190;6.808;2023-06-22T00:57:51;101530.03;;;30.16;40.59
80504;BME280;69825;51.190;6.808;2023-06-22T01:00:21;101528.38;;;30.15;40.30
80504;BME280;69825;51.190;6.808;2023-06-22T01:02:50;101523.66;;;30.16;40.25
80504;BME280;69825;51.190;6.808;2023-06-22T01:05:17;101505.84;;;30.05;40.42
80504;BME280;69825;51.190;6.808;2023-06-22T01:10:57;101514.44;;;30.15;40.31
80504;BME280;69825;51.190;6.808;2023-06-22T01:13:45;101518.91;;;30.16;40.54
80504;BME280;69825;51.190;6.808;2023-06-22T01:16:15;101509.97;;;30.14;40.50
80504;BME280;69825;51.190;6.808;2023-06-22T01:18:42;101509.97;;;30.14;40.16
80504;BME280;69825;51.190;6.808;2023-06-22T01:21:11;101499.91;;;30.13;40.68
80504;BME280;69825;51.190;6.808;2023-06-22T01:24:14;101506.56;;;30.12;40.24
80504;BME280;69825;51.190;6.808;2023-06-22T01:26:53;101506.94;;;30.16;40.44
80504;BME280;69825;51.190;6.808;2023-06-22T01:29:20;101502.19;;;30.16;40.23
80504;BME280;69825;51.190;6.808;2023-06-22T01:31:48;101496.63;;;30.16;40.53
80504;BME280;69825;51.190;6.808;2023-06-22T01:34:15;101488.16;;;30.11;40.12
80504;BME280;69825;51.190;6.808;2023-06-22T01:36:42;101493.25;;;30.14;40.29
80504;BME280;69825;51.190;6.808;2023-06-22T01:39:08;101492.03;;;30.10;40.66
80504;BME280;69825;51.190;6.808;2023-06-22T01:41:36;101487.31;;;30.11;40.60
80504;BME280;69825;51.190;6.808;2023-06-22T01:44:06;101486.00;;;30.13;40.16
80504;BME280;69825;51.190;6.808;2023-06-22T01:46:34;101481.19;;;30.09;40.00
80504;BME280;69825;51.190;6.808;2023-06-22T01:48:59;101458.19;;;30.02;40.26
80504;BME280;69825;51.190;6.808;2023-06-22T01:51:25;101475.84;;;30.07;40.67
80504;BME280;69825;51.190;6.808;2023-06-22T01:53:51;101489.88;;;30.12;40.57
80504;BME280;69825;51.190;6.808;2023-06-22T01:56:17;101486.84;;;30.14;39.99
80504;BME280;69825;51.190;6.808;2023-06-22T01:58:50;101470.75;;;30.04;40.58
80504;BME280;69825;51.190;6.808;2023-06-22T02:01:20;101472.56;;;30.10;40.29
80504;BME280;69825;51.190;6.808;2023-06-22T02:04:02;101481.75;;;30.11;40.64
80504;BME280;69825;51.190;6.808;2023-06-22T02:06:33;101487.44;;;30.16;40.59
80504;BME280;69825;51.190;6.808;2023-06-22T02:09:02;101492.66;;;30.12;40.40
80504;BME280;69825;51.190;6.808;2023-06-22T02:11:31;101484.28;;;30.12;40.77
80504;BME280;69825;51.190;6.808;2023-06-22T02:13:58;101487.69;;;30.14;40.16
80504;BME280;69825;51.190;6.808;2023-06-22T02:16:24;101484.28;;;30.12;40.15
80504;BME280;69825;51.190;6.808;2023-06-22T02:18:50;101486.00;;;30.13;40.40
80504;BME280;69825;51.190;6.808;2023-06-22T02:21:17;101478.38;;;30.09;40.81
80504;BME280;69825;51.190;6.808;2023-06-22T02:23:43;101479.81;;;30.11;40.48
80504;BME280;69825;51.190;6.808;2023-06-22T02:26:08;101482.59;;;30.11;40.31
80504;BME280;69825;51.190;6.808;2023-06-22T02:28:33;101478.72;;;30.12;40.41
80504;BME280;69825;51.190;6.808;2023-06-22T02:30:59;101478.13;;;30.10;40.44
80504;BME280;69825;51.190;6.808;2023-06-22T02:33:24;101467.59;;;30.12;40.09
80504;BME280;69825;51.190;6.808;2023-06-22T02:35:50;101464.19;;;30.10;40.12
80504;BME280;69825;51.190;6.808;2023-06-22T02:38:15;101462.03;;;30.12;40.50
80504;BME280;69825;51.190;6.808;2023-06-22T02:40:40;101458.41;;;30.12;40.18
80504;BME280;69825;51.190;6.808;2023-06-22T02:43:06;101462.03;;;30.12;40.39
80504;BME280;69825;51.190;6.808;2023-06-22T02:45:31;101462.88;;;30.13;40.57
80504;BME280;69825;51.190;6.808;2023-06-22T02:47:57;101462.03;;;30.12;40.36
80504;BME280;69825;51.190;6.808;2023-06-22T02:50:22;101448.00;;;30.07;40.26
80504;BME280;69825;51.190;6.808;2023-06-22T02:52:48;101413.63;;;29.90;40.53
80504;BME280;69825;51.190;6.808;2023-06-22T02:55:13;101451.97;;;30.11;40.31
80504;BME280;69825;51.190;6.808;2023-06-22T02:57:39;101449.19;;;30.11;40.16
80504;BME280;69825;51.190;6.808;2023-06-22T03:00:09;101440.75;;;30.06;40.36
80504;BME280;69825;51.190;6.808;2023-06-22T03:02:41;101445.31;;;30.12;40.23
80504;BME280;69825;51.190;6.808;2023-06-22T03:05:07;101434.19;;;30.12;40.24
80504;BME280;69825;51.190;6.808;2023-06-22T03:07:37;101430.78;;;30.10;40.63
80504;BME280;69825;51.190;6.808;2023-06-22T03:10:03;101431.63;;;30.11;40.51
80504;BME280;69825;51.190;6.808;2023-06-22T03:12:28;101424.88;;;30.07;40.29
80504;BME280;69825;51.190;6.808;2023-06-22T03:14:54;101429.72;;;30.11;40.67
80504;BME280;69825;51.190;6.808;2023-06-22T03:17:19;101423.28;;;30.11;40.29
80504;BME280;69825;51.190;6.808;2023-06-22T03:19:44;101422.19;;;30.12;40.40
80504;BME280;69825;51.190;6.808;2023-06-22T03:22:09;101420.50;;;30.11;40.58
80504;BME280;69825;51.190;6.808;2023-06-22T03:24:35;101426.91;;;30.11;40.58
80504;BME280;69825;51.190;6.808;2023-06-22T03:27:02;101422.44;;;30.10;40.25
80504;BME280;69825;51.190;6.808;2023-06-22T03:29:30;101423.53;;;30.09;40.21
80504;BME280;69825;51.190;6.808;2023-06-22T03:31:55;101410.03;;;30.01;40.80
80504;BME280;69825;51.190;6.808;2023-06-22T03:34:20;101415.19;;;30.09;40.74
80504;BME280;69825;51.190;6.808;2023-06-22T03:36:46;101406.81;;;30.09;40.50
80504;BME280;69825;51.190;6.808;2023-06-22T03:39:11;101394.50;;;30.05;40.95
80504;BME280;69825;51.190;6.808;2023-06-22T03:41:36;101402.09;;;30.10;40.35
80504;BME280;69825;51.190;6.808;2023-06-22T03:44:02;101402.97;;;30.10;40.23
80504;BME280;69825;51.190;6.808;2023-06-22T03:46:27;101390.13;;;30.09;40.48
80504;BME280;69825;51.190;6.808;2023-06-22T03:48:53;101401.25;;;30.09;40.67
80504;BME280;69825;51.190;6.808;2023-06-22T03:51:18;101401.53;;;30.08;41.01
80504;BME280;69825;51.190;6.808;2023-06-22T03:53:43;101406.81;;;30.09;40.78
80504;BME280;69825;51.190;6.808;2023-06-22T03:56:09;101404.03;;;30.09;40.81
80504;BME280;69825;51.190;6.808;2023-06-22T03:58:34;101395.69;;;30.09;40.67
80504;BME280;69825;51.190;6.808;2023-06-22T04:01:01;101396.81;;;30.08;40.77
80504;BME280;69825;51.190;6.808;2023-06-22T04:03:27;101404.56;;;30.06;40.39
80504;BME280;69825;51.190;6.808;2023-06-22T04:05:52;101352.69;;;29.77;40.46
80504;BME280;69825;51.190;6.808;2023-06-22T04:08:17;101400.06;;;30.05;40.33
80504;BME280;69825;51.190;6.808;2023-06-22T04:10:43;101405.88;;;30.04;40.19
80504;BME280;69825;51.190;6.808;2023-06-22T04:13:09;101404.56;;;30.06;40.51
80504;BME280;69825;51.190;6.808;2023-06-22T04:15:34;101405.16;;;30.08;40.76
80504;BME280;69825;51.190;6.808;2023-06-22T04:18:00;101410.72;;;30.08;40.27
80504;BME280;69825;51.190;6.808;2023-06-22T04:20:25;101406.00;;;30.09;40.48
80504;BME280;69825;51.190;6.808;2023-06-22T04:22:55;101400.69;;;30.07;40.44
80504;BME280;69825;51.190;6.808;2023-06-22T04:25:20;101392.34;;;30.07;40.21
80504;BME280;69825;51.190;6.808;2023-06-22T04:27:46;101391.97;;;30.04;40.70
80504;BME280;69825;51.190;6.808;2023-06-22T04:30:12;101402.63;;;30.07;40.40
80504;BME280;69825;51.190;6.808;2023-06-22T04:32:41;101399.84;;;30.07;40.35
80504;BME280;69825;51.190;6.808;2023-06-22T04:35:06;101397.91;;;30.07;40.32
80504;BME280;69825;51.190;6.808;2023-06-22T04:37:32;101391.97;;;30.04;40.88
80504;BME280;69825;51.190;6.808;2023-06-22T04:39:58;101391.63;;;30.00;40.39
80504;BME280;69825;51.190;6.808;2023-06-22T04:42:28;101396.09;;;30.01;40.44
80504;BME280;69825;51.190;6.808;2023-06-22T04:44:53;101385.97;;;29.95;40.67
80504;BME280;69825;51.190;6.808;2023-06-22T04:47:18;101412.91;;;30.06;40.63
80504;BME280;69825;51.190;6.808;2023-06-22T04:49:44;101410.88;;;30.02;40.88
80504;BME280;69825;51.190;6.808;2023-06-22T04:52:11;101422.94;;;30.07;40.51
80504;BME280;69825;51.190;6.808;2023-06-22T04:54:38;101412.19;;;29.99;40.26
80504;BME280;69825;51.190;6.808;2023-06-22T04:57:07;101418.47;;;30.06;40.25
80504;BME280;69825;51.190;6.808;2023-06-22T04:59:36;101422.94;;;30.07;40.14
80504;BME280;69825;51.190;6.808;2023-06-22T05:02:05;101419.31;;;30.07;40.34
80504;BME280;69825;51.190;6.808;2023-06-22T05:04:31;101407.34;;;30.06;40.71
80504;BME280;69825;51.190;6.808;2023-06-22T05:06:57;101412.91;;;30.06;40.77
80504;BME280;69825;51.190;6.808;2023-06-22T05:09:23;101400.94;;;30.06;40.39
80504;BME280;69825;51.190;6.808;2023-06-22T05:11:50;101408.44;;;30.05;40.73
80504;BME280;69825;51.190;6.808;2023-06-22T05:14:16;101405.63;;;30.05;40.71
80504;BME280;69825;51.190;6.808;2023-06-22T05:16:42;101405.03;;;30.03;40.15
80504;BME280;69825;51.190;6.808;2023-06-22T05:19:08;101386.88;;;29.89;40.00
80504;BME280;69825;51.190;6.808;2023-06-22T05:21:34;101404.47;;;30.01;40.00
80504;BME280;69825;51.190;6.808;2023-06-22T05:23:59;101404.94;;;29.98;39.98
80504;BME280;69825;51.190;6.808;2023-06-22T05:26:32;101408.31;;;30.00;40.58
80504;BME280;69825;51.190;6.808;2023-06-22T05:28:59;101404.94;;;29.98;40.32
80504;BME280;69825;51.190;6.808;2023-06-22T05:31:26;101403.75;;;29.94;39.49
80504;BME280;69825;51.190;6.808;2023-06-22T05:33:53;101413.53;;;29.97;39.54
80504;BME280;69825;51.190;6.808;2023-06-22T05:36:18;101403.00;;;29.87;39.70
80504;BME280;69825;51.190;6.808;2023-06-22T05:38:50;101417.06;;;29.92;39.57
80504;BME280;69825;51.190;6.808;2023-06-22T05:41:16;101419.19;;;29.90;39.49
80504;BME280;69825;51.190;6.808;2023-06-22T05:43:41;101417.50;;;29.89;39.51
80504;BME280;69825;51.190;6.808;2023-06-22T05:46:07;101416.91;;;29.87;39.28
80504;BME280;69825;51.190;6.808;2023-06-22T05:48:32;101418.00;;;29.86;39.14
80504;BME280;69825;51.190;6.808;2023-06-22T05:50:58;101420.19;;;29.84;39.44
80504;BME280;69825;51.190;6.808;2023-06-22T05:53:24;101405.69;;;29.82;39.35
80504;BME280;69825;51.190;6.808;2023-06-22T05:55:49;101413.44;;;29.80;39.41
80504;BME280;69825;51.190;6.808;2023-06-22T05:58:15;101385.88;;;29.67;39.04
80504;BME280;69825;51.190;6.808;2023-06-22T06:00:41;101398.06;;;29.77;39.20
80504;BME280;69825;51.190;6.808;2023-06-22T06:03:07;101404.47;;;29.78;39.13
80504;BME280;69825;51.190;6.808;2023-06-22T06:05:34;101404.72;;;29.76;39.67
80504;BME280;69825;51.190;6.808;2023-06-22T06:08:04;101404.97;;;29.75;39.39
80504;BME280;69825;51.190;6.808;2023-06-22T06:10:33;101422.47;;;29.75;39.15
80504;BME280;69825;51.190;6.808;2023-06-22T06:12:59;101422.16;;;29.72;39.09
80504;BME280;69825;51.190;6.808;2023-06-22T06:15:27;101417.19;;;29.74;39.35
80504;BME280;69825;51.190;6.808;2023-06-22T06:17:53;101424.69;;;29.73;39.30
80504;BME280;69825;51.190;6.808;2023-06-22T06:20:20;101425.78;;;29.72;39.80
80504;BME280;69825;51.190;6.808;2023-06-22T06:22:46;101433.88;;;29.74;39.00
80504;BME280;69825;51.190;6.808;2023-06-22T06:25:12;101421.91;;;29.73;39.14
80504;BME280;69825;51.190;6.808;2023-06-22T06:27:44;101412.72;;;29.73;39.42
80504;BME280;69825;51.190;6.808;2023-06-22T06:30:11;101419.97;;;29.74;39.31
80504;BME280;69825;51.190;6.808;2023-06-22T06:32:36;101427.22;;;29.75;39.87
80504;BME280;69825;51.190;6.808;2023-06-22T06:35:03;101430.25;;;29.73;39.38
80504;BME280;69825;51.190;6.808;2023-06-22T06:37:28;101431.09;;;29.74;39.68
80504;BME280;69825;51.190;6.808;2023-06-22T06:39:54;101430.25;;;29.73;39.44
80504;BME280;69825;51.190;6.808;2023-06-22T06:42:19;101417.06;;;29.69;39.36
80504;BME280;69825;51.190;6.808;2023-06-22T06:44:45;101425.78;;;29.72;39.38
80504;BME280;69825;51.190;6.808;2023-06-22T06:47:10;101424.69;;;29.73;39.76
80504;BME280;69825;51.190;6.808;2023-06-22T06:49:36;101423.84;;;29.73;39.33
80504;BME280;69825;51.190;6.808;2023-06-22T06:52:01;101428.31;;;29.74;39.58
80504;BME280;69825;51.190;6.808;2023-06-22T06:54:26;101436.66;;;29.74;39.34
80504;BME280;69825;51.190;6.808;2023-06-22T06:56:52;101441.38;;;29.73;39.88
80504;BME280;69825;51.190;6.808;2023-06-22T06:59:18;101435.81;;;29.73;39.41
80504;BME280;69825;51.190;6.808;2023-06-22T07:01:43;101442.22;;;29.74;39.88
80504;BME280;69825;51.190;6.808;2023-06-22T07:04:09;101446.09;;;29.73;40.45
80504;BME280;69825;51.190;6.808;2023-06-22T07:06:35;101416.56;;;29.72;40.19
80504;BME280;69825;51.190;6.808;2023-06-22T07:09:00;101421.28;;;29.71;40.55
80504;BME280;69825;51.190;6.808;2023-06-22T07:11:26;101403.75;;;29.71;41.40
80504;BME280;69825;51.190;6.808;2023-06-22T07:13:52;101397.00;;;29.67;41.35
80504;BME280;69825;51.190;6.808;2023-06-22T07:16:17;101396.38;;;29.65;41.89
80504;BME280;69825;51.190;6.808;2023-06-22T07:18:43;101408.13;;;29.67;41.93
80504;BME280;69825;51.190;6.808;2023-06-22T07:21:08;101406.06;;;29.62;42.13
80504;BME280;69825;51.190;6.808;2023-06-22T07:23:34;101383.22;;;29.49;42.62
80504;BME280;69825;51.190;6.808;2023-06-22T07:25:59;101404.63;;;29.60;42.60
80504;BME280;69825;51.190;6.808;2023-06-22T07:28:27;101396.03;;;29.50;42.67
80504;BME280;69825;51.190;6.808;2023-06-22T07:30:53;101409.81;;;29.56;43.05
80504;BME280;69825;51.190;6.808;2023-06-22T07:33:19;101407.88;;;29.57;43.19
80504;BME280;69825;51.190;6.808;2023-06-22T07:35:44;101401.47;;;29.56;43.55
80504;BME280;69825;51.190;6.808;2023-06-22T07:38:10;101400.63;;;29.56;43.72
80504;BME280;69825;51.190;6.808;2023-06-22T07:40:35;101397.00;;;29.55;44.00
80504;BME280;69825;51.190;6.808;2023-06-22T07:43:01;101387.84;;;29.55;43.64
80504;BME280;69825;51.190;6.808;2023-06-22T07:45:26;101387.84;;;29.55;44.15
80504;BME280;69825;51.190;6.808;2023-06-22T07:47:52;101371.16;;;29.55;44.27
80504;BME280;69825;51.190;6.808;2023-06-22T07:50:17;101372.22;;;29.54;44.80
80504;BME280;69825;51.190;6.808;2023-06-22T07:52:42;101361.94;;;29.54;44.80
80504;BME280;69825;51.190;6.808;2023-06-22T07:55:08;101363.03;;;29.53;45.13
80504;BME280;69825;51.190;6.808;2023-06-22T07:57:33;101353.59;;;29.54;44.97
80504;BME280;69825;51.190;6.808;2023-06-22T08:00:00;101342.72;;;29.53;45.47
80504;BME280;69825;51.190;6.808;2023-06-22T08:02:26;101320.84;;;29.44;45.44
80504;BME280;69825;51.190;6.808;2023-06-22T08:04:51;101324.94;;;29.54;45.70
80504;BME280;69825;51.190;6.808;2023-06-22T08:07:17;101320.94;;;29.50;45.81
80504;BME280;69825;51.190;6.808;2023-06-22T08:09:47;101329.44;;;29.55;45.74
80504;BME280;69825;51.190;6.808;2023-06-22T08:12:13;101318.78;;;29.52;45.39
80504;BME280;69825;51.190;6.808;2023-06-22T08:14:38;101317.19;;;29.56;45.70
80504;BME280;69825;51.190;6.808;2023-06-22T08:17:04;101315.50;;;29.55;45.61
80504;BME280;69825;51.190;6.808;2023-06-22T08:19:29;101315.25;;;29.56;45.88
80504;BME280;69825;51.190;6.808;2023-06-22T08:21:54;101319.72;;;29.57;45.80
80504;BME280;69825;51.190;6.808;2023-06-22T08:24:20;101320.56;;;29.58;45.67
80504;BME280;69825;51.190;6.808;2023-06-22T08:26:45;101318.88;;;29.57;45.69
80504;BME280;69825;51.190;6.808;2023-06-22T08:29:11;101318.41;;;29.60;46.02
80504;BME280;69825;51.190;6.808;2023-06-22T08:31:36;101310.91;;;29.60;45.98
80504;BME280;69825;51.190;6.808;2023-06-22T08:34:01;101314.53;;;29.61;46.15
80504;BME280;69825;51.190;6.808;2023-06-22T08:36:27;101320.09;;;29.61;45.83
80504;BME280;69825;51.190;6.808;2023-06-22T08:38:55;101305.06;;;29.62;46.04
80504;BME280;69825;51.190;6.808;2023-06-22T08:41:28;101302.91;;;29.64;46.14
80504;BME280;69825;51.190;6.808;2023-06-22T08:43:53;101291.75;;;29.64;46.50
80504;BME280;69825;51.190;6.808;2023-06-22T08:46:18;101299.88;;;29.65;46.47
80504;BME280;69825;51.190;6.808;2023-06-22T08:48:48;101288.75;;;29.65;46.05
80504;BME280;69825;51.190;6.808;2023-06-22T08:51:13;101285.72;;;29.67;46.27
80504;BME280;69825;51.190;6.808;2023-06-22T08:53:39;101279.31;;;29.66;46.55
80504;BME280;69825;51.190;6.808;2023-06-22T08:56:04;101276.28;;;29.68;46.19
80504;BME280;69825;51.190;6.808;2023-06-22T08:58:29;101274.09;;;29.70;45.94
80504;BME280;69825;51.190;6.808;2023-06-22T09:00:55;101266.59;;;29.70;46.12
80504;BME280;69825;51.190;6.808;2023-06-22T09:03:20;101252.44;;;29.72;46.07
80504;BME280;69825;51.190;6.808;2023-06-22T09:05:46;101252.44;;;29.72;46.00
80504;BME280;69825;51.190;6.808;2023-06-22T09:08:11;101248.47;;;29.68;46.08
80504;BME280;69825;51.190;6.808;2023-06-22T09:10:36;101252.19;;;29.73;45.77
80504;BME280;69825;51.190;6.808;2023-06-22T09:13:02;101253.63;;;29.76;45.33
80504;BME280;69825;51.190;6.808;2023-06-22T09:15:27;101253.03;;;29.74;45.71
80504;BME280;69825;51.190;6.808;2023-06-22T09:17:52;101264.50;;;29.77;45.23
80504;BME280;69825;51.190;6.808;2023-06-22T09:20:19;101243.41;;;29.65;45.38
80504;BME280;69825;51.190;6.808;2023-06-22T09:22:45;101264.75;;;29.76;45.19
80504;BME280;69825;51.190;6.808;2023-06-22T09:25:10;101265.97;;;29.80;45.30
80504;BME280;69825;51.190;6.808;2023-06-22T09:27:35;101249.03;;;29.81;45.23
80504;BME280;69825;51.190;6.808;2023-06-22T09:30:01;101244.88;;;29.84;45.35
80504;BME280;69825;51.190;6.808;2023-06-22T09:32:26;101224.31;;;29.85;45.50
80504;BME280;69825;51.190;6.808;2023-06-22T09:34:52;101223.22;;;29.86;44.98
80504;BME280;69825;51.190;6.808;2023-06-22T09:37:18;101224.91;;;29.87;44.90
80504;BME280;69825;51.190;6.808;2023-06-22T09:39:43;101226.59;;;29.88;45.11
80504;BME280;69825;51.190;6.808;2023-06-22T09:42:08;101211.56;;;29.89;44.79
80504;BME280;69825;51.190;6.808;2023-06-22T09:44:34;101204.06;;;29.90;44.87
80504;BME280;69825;51.190;6.808;2023-06-22T09:46:59;101208.34;;;29.92;45.15
80504;BME280;69825;51.190;6.808;2023-06-22T09:49:25;101205.06;;;29.95;44.97
80504;BME280;69825;51.190;6.808;2023-06-22T09:51:51;101191.38;;;29.94;44.98
80504;BME280;69825;51.190;6.808;2023-06-22T09:54:17;101194.75;;;29.96;44.74
80504;BME280;69825;51.190;6.808;2023-06-22T09:56:42;101204.53;;;29.98;44.38
80504;BME280;69825;51.190;6.808;2023-06-22T09:59:08;101197.28;;;29.97;44.76
80504;BME280;69825;51.190;6.808;2023-06-22T10:01:33;101196.78;;;30.00;44.90
80504;BME280;69825;51.190;6.808;2023-06-22T10:03:58;101202.97;;;30.02;44.70
80504;BME280;69825;51.190;6.808;2023-06-22T10:06:24;101196.28;;;30.03;44.37
80504;BME280;69825;51.190;6.808;2023-06-22T10:08:51;101195.19;;;30.04;44.69
80504;BME280;69825;51.190;6.808;2023-06-22T10:11:16;101194.09;;;30.05;44.18
80504;BME280;69825;51.190;6.808;2023-06-22T10:13:41;101209.69;;;30.06;44.45
80504;BME280;69825;51.190;6.808;2023-06-22T10:16:07;101205.22;;;30.05;44.49
80504;BME280;69825;51.190;6.808;2023-06-22T10:18:32;101205.81;;;30.07;44.67
80504;BME280;69825;51.190;6.808;2023-06-22T10:20:57;101208.63;;;30.07;44.81
80504;BME280;69825;51.190;6.808;2023-06-22T10:23:23;101203.03;;;30.07;44.31
80504;BME280;69825;51.190;6.808;2023-06-22T10:25:48;101199.06;;;30.03;44.37
80504;BME280;69825;51.190;6.808;2023-06-22T10:28:14;101209.47;;;30.08;44.58
80504;BME280;69825;51.190;6.808;2023-06-22T10:30:42;101221.44;;;30.08;44.42
80504;BME280;69825;51.190;6.808;2023-06-22T10:33:09;101229.78;;;30.08;44.33
80504;BME280;69825;51.190;6.808;2023-06-22T10:35:35;101223.78;;;30.00;44.53
80504;BME280;69825;51.190;6.808;2023-06-22T10:38:02;101243.72;;;30.08;44.06
80504;BME280;69825;51.190;6.808;2023-06-22T10:40:28;101249.28;;;30.08;44.71
80504;BME280;69825;51.190;6.808;2023-06-22T10:42:53;101250.94;;;30.09;43.97
80504;BME280;69825;51.190;6.808;2023-06-22T10:45:19;101256.50;;;30.09;44.55
80504;BME280;69825;51.190;6.808;2023-06-22T10:47:44;101258.19;;;30.10;44.52
80504;BME280;69825;51.190;6.808;2023-06-22T10:50:10;101281.56;;;30.09;43.78
80504;BME280;69825;51.190;6.808;2023-06-22T10:52:35;101289.91;;;30.09;44.42
80504;BME280;69825;51.190;6.808;2023-06-22T10:55:01;101297.69;;;30.07;45.54
80504;BME280;69825;51.190;6.808;2023-06-22T10:57:26;101311.38;;;30.09;45.75
80504;BME280;69825;51.190;6.808;2023-06-22T10:59:51;101321.66;;;30.08;47.23
80504;BME280;69825;51.190;6.808;2023-06-22T11:02:17;101317.41;;;30.06;46.81
80504;BME280;69825;51.190;6.808;2023-06-22T11:04:42;101314.88;;;30.04;47.61
80504;BME280;69825;51.190;6.808;2023-06-22T11:07:08;101308.97;;;30.01;48.78
80504;BME280;69825;51.190;6.808;2023-06-22T11:09:34;101313.69;;;30.00;48.43
80504;BME280;69825;51.190;6.808;2023-06-22T11:11:59;101304.75;;;29.98;48.82
80504;BME280;69825;51.190;6.808;2023-06-22T11:14:25;101302.19;;;29.97;48.43
80504;BME280;69825;51.190;6.808;2023-06-22T11:16:50;101304.13;;;29.96;48.71
80504;BME280;69825;51.190;6.808;2023-06-22T11:19:16;101301.34;;;29.96;48.57
80504;BME280;69825;51.190;6.808;2023-06-22T11:21:41;101289.03;;;29.92;48.53
80504;BME280;69825;51.190;6.808;2023-06-22T11:24:06;101287.44;;;29.96;48.00
80504;BME280;69825;51.190;6.808;2023-06-22T11:26:32;101280.19;;;29.95;48.20
80504;BME280;69825;51.190;6.808;2023-06-22T11:28:58;101274.63;;;29.95;48.23
80504;BME280;69825;51.190;6.808;2023-06-22T11:31:24;101266.28;;;29.95;48.42
80504;BME280;69825;51.190;6.808;2023-06-22T11:33:49;101256.81;;;29.96;48.44
80504;BME280;69825;51.190;6.808;2023-06-22T11:36:15;101244.84;;;29.96;48.13
80504;BME280;69825;51.190;6.808;2023-06-22T11:38:40;101225.13;;;29.97;48.43
80504;BME280;69825;51.190;6.808;2023-06-22T11:41:06;101218.38;;;29.93;48.54
80504;BME280;69825;51.190;6.808;2023-06-22T11:43:32;101213.97;;;29.97;48.70
80504;BME280;69825;51.190;6.808;2023-06-22T11:45:58;101203.69;;;29.98;48.41
80504;BME280;69825;51.190;6.808;2023-06-22T11:48:26;101191.72;;;29.97;48.61
80504;BME280;69825;51.190;6.808;2023-06-22T11:50:52;101193.94;;;29.95;48.75
80504;BME280;69825;51.190;6.808;2023-06-22T11:53:17;101168.75;;;29.90;49.27
80504;BME280;69825;51.190;6.808;2023-06-22T11:55:43;101152.75;;;29.97;49.20
80504;BME280;69825;51.190;6.808;2023-06-22T11:58:09;101127.94;;;29.96;49.59
80504;BME280;69825;51.190;6.808;2023-06-22T12:00:34;101112.94;;;29.97;49.67
80504;BME280;69825;51.190;6.808;2023-06-22T12:02:59;101106.53;;;29.96;49.54
80504;BME280;69825;51.190;6.808;2023-06-22T12:05:25;101100.13;;;29.96;49.47
80504;BME280;69825;51.190;6.808;2023-06-22T12:07:53;101104.03;;;29.95;49.87
80504;BME280;69825;51.190;6.808;2023-06-22T12:10:18;101082.41;;;29.85;50.08
80504;BME280;69825;51.190;6.808;2023-06-22T12:12:44;101095.94;;;29.93;50.37
80504;BME280;69825;51.190;6.808;2023-06-22T12:15:10;101103.63;;;29.91;50.88
80504;BME280;69825;51.190;6.808;2023-06-22T12:17:35;101106.66;;;29.90;50.29
80504;BME280;69825;51.190;6.808;2023-06-22T12:20:01;101111.91;;;29.86;50.63
80504;BME280;69825;51.190;6.808;2023-06-22T12:22:27;101122.78;;;29.88;50.89
80504;BME280;69825;51.190;6.808;2023-06-22T12:24:52;101119.16;;;29.87;50.57
80504;BME280;69825;51.190;6.808;2023-06-22T12:27:17;101106.34;;;29.86;51.17
80504;BME280;69825;51.190;6.808;2023-06-22T12:29:45;101090.75;;;29.85;51.05
80504;BME280;69825;51.190;6.808;2023-06-22T12:32:10;101093.53;;;29.85;51.05
80504;BME280;69825;51.190;6.808;2023-06-22T12:34:38;101092.69;;;29.84;50.99
80504;BME280;69825;51.190;6.808;2023-06-22T12:37:04;101091.84;;;29.84;50.86
80504;BME280;69825;51.190;6.808;2023-06-22T12:39:31;101090.75;;;29.85;50.77
80504;BME280;69825;51.190;6.808;2023-06-22T12:41:56;101098.25;;;29.84;51.46
80504;BME280;69825;51.190;6.808;2023-06-22T12:44:21;101099.09;;;29.85;51.63
80504;BME280;69825;51.190;6.808;2023-06-22T12:46:47;101097.16;;;29.85;51.34
80504;BME280;69825;51.190;6.808;2023-06-22T12:49:12;101075.00;;;29.74;52.23